createdAt,value
2018-11-02T00:00:42.380Z,1012.25
2018-11-02T00:01:42.412Z,1012.27
2018-11-02T00:02:42.425Z,1012.32
2018-11-02T00:03:41.489Z,1012.28
2018-11-02T00:04:41.419Z,1012.26
2018-11-02T00:05:41.440Z,1012.24
2018-11-02T00:06:41.892Z,1012.22
2018-11-02T00:07:41.882Z,1012.21
2018-11-02T00:08:41.467Z,1012.20
2018-11-02T00:09:41.892Z,1012.21
2018-11-02T00:10:41.887Z,1012.16
2018-11-02T00:11:41.899Z,1012.12
2018-11-02T00:12:41.168Z,1012.07
2018-11-02T00:13:41.447Z,1012.07
2018-11-02T00:14:41.887Z,1012.09
2018-11-02T00:15:41.112Z,1012.08
2018-11-02T00:16:41.502Z,1012.10
2018-11-02T00:17:40.989Z,1012.11
2018-11-02T00:18:41.930Z,1012.07
2018-11-02T00:19:42.044Z,1012.07
2018-11-02T00:20:40.892Z,1012.06
2018-11-02T00:21:40.971Z,1012.00
2018-11-02T00:22:41.376Z,1012.00
2018-11-02T00:23:40.854Z,1011.99
2018-11-02T00:24:40.765Z,1011.96
2018-11-02T00:25:41.377Z,1011.94
2018-11-02T00:26:40.748Z,1011.92
2018-11-02T00:27:41.417Z,1011.92
2018-11-02T00:28:40.640Z,1011.93
2018-11-02T00:29:40.597Z,1011.96
2018-11-02T00:30:41.393Z,1011.92
2018-11-02T00:31:41.003Z,1011.93
2018-11-02T00:32:40.502Z,1011.97
2018-11-02T00:33:40.468Z,1011.98
2018-11-02T00:34:41.485Z,1012.01
2018-11-02T00:35:41.377Z,1012.06
2018-11-02T00:36:40.440Z,1012.12
2018-11-02T00:37:40.444Z,1012.07
2018-11-02T00:38:40.882Z,1012.11
2018-11-02T00:39:40.946Z,1012.08
2018-11-02T00:40:40.887Z,1012.10
2018-11-02T00:41:40.207Z,1012.10
2018-11-02T00:42:40.557Z,1012.05
2018-11-02T00:43:40.885Z,1012.00
2018-11-02T00:44:40.893Z,1011.98
2018-11-02T00:45:40.880Z,1012.03
2018-11-02T00:46:40.948Z,1011.99
2018-11-02T00:47:40.453Z,1012.03
2018-11-02T00:48:40.900Z,1012.07
2018-11-02T00:49:39.997Z,1012.13
2018-11-02T00:50:40.889Z,1012.16
2018-11-02T00:51:40.406Z,1012.17
2018-11-02T00:52:39.960Z,1012.16
2018-11-02T00:53:39.858Z,1012.12
2018-11-02T00:54:39.847Z,1012.11
2018-11-02T00:55:39.761Z,1012.12
2018-11-02T00:56:40.378Z,1012.13
2018-11-02T00:57:39.681Z,1012.12
2018-11-02T00:58:39.948Z,1012.11
2018-11-02T00:59:40.384Z,1012.13
2018-11-02T01:00:39.584Z,1012.07
2018-11-02T01:01:40.376Z,1011.98
2018-11-02T01:02:39.517Z,1012.03
2018-11-02T01:03:39.949Z,1012.04
2018-11-02T01:04:39.495Z,1011.97
2018-11-02T01:05:39.940Z,1011.85
2018-11-02T01:06:40.379Z,1011.88
2018-11-02T01:07:39.893Z,1011.91
2018-11-02T01:08:39.321Z,1011.97
2018-11-02T01:09:39.434Z,1012.05
2018-11-02T01:10:39.256Z,1012.05
2018-11-02T01:11:39.435Z,1012.08
2018-11-02T01:12:39.190Z,1012.15
2018-11-02T01:13:39.168Z,1012.21
2018-11-02T01:14:39.193Z,1012.25
2018-11-02T01:15:39.115Z,1012.28
2018-11-02T01:16:39.941Z,1012.25
2018-11-02T01:17:39.878Z,1012.27
2018-11-02T01:18:38.996Z,1012.28
2018-11-02T01:19:39.434Z,1012.31
2018-11-02T01:20:38.929Z,1012.31
2018-11-02T01:21:38.949Z,1012.33
2018-11-02T01:22:39.382Z,1012.35
2018-11-02T01:23:38.832Z,1012.46
2018-11-02T01:24:39.384Z,1012.49
2018-11-02T01:25:39.378Z,1012.45
2018-11-02T01:26:38.777Z,1012.45
2018-11-02T01:27:38.710Z,1012.47
2018-11-02T01:28:39.381Z,1012.48
2018-11-02T01:29:38.632Z,1012.44
2018-11-02T01:30:38.945Z,1012.44
2018-11-02T01:31:39.380Z,1012.47
2018-11-02T01:32:38.546Z,1012.46
2018-11-02T01:33:39.415Z,1012.43
2018-11-02T01:34:39.377Z,1012.46
2018-11-02T01:35:38.976Z,1012.49
2018-11-02T01:36:38.949Z,1012.57
2018-11-02T01:37:38.421Z,1012.57
2018-11-02T01:38:39.790Z,1012.52
2018-11-02T01:39:38.896Z,1012.55
2018-11-02T01:40:38.880Z,1012.58
2018-11-02T01:41:38.884Z,1012.59
2018-11-02T01:42:38.438Z,1012.65
2018-11-02T01:43:38.882Z,1012.67
2018-11-02T01:44:38.884Z,1012.68
2018-11-02T01:45:38.132Z,1012.67
2018-11-02T01:46:38.440Z,1012.65
2018-11-02T01:47:38.440Z,1012.71
2018-11-02T01:48:39.392Z,1012.71
2018-11-02T01:49:38.886Z,1012.75
2018-11-02T01:50:38.880Z,1012.82
2018-11-02T01:51:38.881Z,1012.82
2018-11-02T01:52:38.389Z,1012.84
2018-11-02T01:53:37.891Z,1012.84
2018-11-02T01:54:38.385Z,1012.82
2018-11-02T01:55:37.777Z,1012.83
2018-11-02T01:56:38.390Z,1012.86
2018-11-02T01:57:38.403Z,1012.89
2018-11-02T01:58:37.972Z,1012.93
2018-11-02T01:59:38.393Z,1012.94
2018-11-02T02:00:38.393Z,1012.92
2018-11-02T02:01:37.581Z,1012.92
2018-11-02T02:02:37.547Z,1012.88
2018-11-02T02:03:37.566Z,1012.83
2018-11-02T02:04:37.481Z,1012.81
2018-11-02T02:05:37.523Z,1012.83
2018-11-02T02:06:38.380Z,1012.81
2018-11-02T02:07:37.441Z,1012.76
2018-11-02T02:08:37.887Z,1012.74
2018-11-02T02:09:37.357Z,1012.71
2018-11-02T02:10:37.342Z,1012.70
2018-11-02T02:11:37.884Z,1012.70
2018-11-02T02:12:37.446Z,1012.72
2018-11-02T02:13:37.889Z,1012.71
2018-11-02T02:14:37.157Z,1012.72
2018-11-02T02:15:37.116Z,1012.73
2018-11-02T02:16:37.087Z,1012.69
2018-11-02T02:17:37.105Z,1012.68
2018-11-02T02:18:37.891Z,1012.68
2018-11-02T02:19:37.884Z,1012.67
2018-11-02T02:20:37.924Z,1012.71
2018-11-02T02:21:36.979Z,1012.67
2018-11-02T02:22:37.881Z,1012.70
2018-11-02T02:23:37.385Z,1012.73
2018-11-02T02:24:36.842Z,1012.77
2018-11-02T02:25:36.795Z,1012.82
2018-11-02T02:26:36.949Z,1012.83
2018-11-02T02:27:37.433Z,1012.86
2018-11-02T02:28:36.726Z,1012.88
2018-11-02T02:29:37.385Z,1012.90
2018-11-02T02:30:37.429Z,1012.92
2018-11-02T02:31:37.383Z,1012.95
2018-11-02T02:32:37.304Z,1012.92
2018-11-02T02:33:36.572Z,1012.98
2018-11-02T02:34:37.386Z,1013.04
2018-11-02T02:35:37.419Z,1013.05
2018-11-02T02:36:37.389Z,1013.04
2018-11-02T02:37:37.385Z,1013.02
2018-11-02T02:38:36.406Z,1013.06
2018-11-02T02:39:36.893Z,1013.09
2018-11-02T02:40:36.903Z,1013.05
2018-11-02T02:41:36.266Z,1013.09
2018-11-02T02:42:36.941Z,1013.08
2018-11-02T02:43:36.481Z,1013.13
2018-11-02T02:44:36.167Z,1013.13
2018-11-02T02:45:36.129Z,1013.12
2018-11-02T02:46:36.893Z,1013.17
2018-11-02T02:47:36.101Z,1013.16
2018-11-02T02:48:36.446Z,1013.17
2018-11-02T02:49:36.015Z,1013.18
2018-11-02T02:50:36.947Z,1013.18
2018-11-02T02:51:35.933Z,1013.20
2018-11-02T02:52:35.905Z,1013.18
2018-11-02T02:53:35.956Z,1013.23
2018-11-02T02:54:36.389Z,1013.21
2018-11-02T02:55:35.803Z,1013.22
2018-11-02T02:56:36.396Z,1013.27
2018-11-02T02:57:35.776Z,1013.23
2018-11-02T02:58:35.948Z,1013.20
2018-11-02T02:59:35.728Z,1013.16
2018-11-02T03:00:36.391Z,1013.20
2018-11-02T03:01:36.392Z,1013.16
2018-11-02T03:02:35.574Z,1013.15
2018-11-02T03:03:36.394Z,1013.16
2018-11-02T03:04:35.955Z,1013.17
2018-11-02T03:05:36.488Z,1013.10
2018-11-02T03:06:35.503Z,1013.12
2018-11-02T03:07:36.395Z,1013.21
2018-11-02T03:08:35.889Z,1013.17
2018-11-02T03:09:35.441Z,1013.15
2018-11-02T03:10:35.915Z,1013.15
2018-11-02T03:11:35.890Z,1013.20
2018-11-02T03:12:35.245Z,1013.15
2018-11-02T03:13:35.261Z,1013.19
2018-11-02T03:14:35.180Z,1013.22
2018-11-02T03:15:35.200Z,1013.22
2018-11-02T03:16:35.113Z,1013.22
2018-11-02T03:17:35.082Z,1013.25
2018-11-02T03:18:35.950Z,1013.22
2018-11-02T03:19:35.890Z,1013.25
2018-11-02T03:20:35.050Z,1013.30
2018-11-02T03:21:34.957Z,1013.30
2018-11-02T03:22:35.945Z,1013.33
2018-11-02T03:23:35.441Z,1013.34
2018-11-02T03:24:34.913Z,1013.36
2018-11-02T03:25:35.392Z,1013.32
2018-11-02T03:26:35.391Z,1013.31
2018-11-02T03:27:35.388Z,1013.30
2018-11-02T03:28:35.395Z,1013.32
2018-11-02T03:29:34.958Z,1013.30
2018-11-02T03:30:35.395Z,1013.26
2018-11-02T03:31:35.397Z,1013.28
2018-11-02T03:32:34.600Z,1013.29
2018-11-02T03:33:34.562Z,1013.26
2018-11-02T03:34:34.974Z,1013.26
2018-11-02T03:35:34.559Z,1013.26
2018-11-02T03:36:35.392Z,1013.23
2018-11-02T03:37:34.630Z,1013.27
2018-11-02T03:38:35.401Z,1013.23
2018-11-02T03:39:34.371Z,1013.28
2018-11-02T03:40:34.446Z,1013.34
2018-11-02T03:41:34.448Z,1013.38
2018-11-02T03:42:34.905Z,1013.39
2018-11-02T03:43:34.244Z,1013.39
2018-11-02T03:44:34.898Z,1013.39
2018-11-02T03:45:34.797Z,1013.42
2018-11-02T03:46:34.445Z,1013.46
2018-11-02T03:47:34.110Z,1013.48
2018-11-02T03:48:34.075Z,1013.51
2018-11-02T03:49:34.896Z,1013.52
2018-11-02T03:50:34.453Z,1013.50
2018-11-02T03:51:33.977Z,1013.48
2018-11-02T03:52:34.893Z,1013.47
2018-11-02T03:53:34.891Z,1013.50
2018-11-02T03:54:34.395Z,1013.52
2018-11-02T03:55:33.958Z,1013.49
2018-11-02T03:56:34.430Z,1013.49
2018-11-02T03:57:34.408Z,1013.47
2018-11-02T03:58:34.392Z,1013.52
2018-11-02T03:59:33.767Z,1013.50
2018-11-02T04:00:34.007Z,1013.49
2018-11-02T04:01:33.719Z,1013.50
2018-11-02T04:02:33.636Z,1013.50
2018-11-02T04:03:34.398Z,1013.54
2018-11-02T04:04:33.585Z,1013.56
2018-11-02T04:05:34.414Z,1013.57
2018-11-02T04:06:33.959Z,1013.57
2018-11-02T04:07:34.392Z,1013.55
2018-11-02T04:08:33.431Z,1013.56
2018-11-02T04:09:33.447Z,1013.62
2018-11-02T04:10:33.368Z,1013.61
2018-11-02T04:11:33.455Z,1013.61
2018-11-02T04:12:33.895Z,1013.62
2018-11-02T04:13:33.316Z,1013.65
2018-11-02T04:14:33.257Z,1013.68
2018-11-02T04:15:33.206Z,1013.71
2018-11-02T04:16:33.899Z,1013.72
2018-11-02T04:17:33.144Z,1013.77
2018-11-02T04:18:33.151Z,1013.78
2018-11-02T04:19:33.897Z,1013.86
2018-11-02T04:20:33.898Z,1013.81
2018-11-02T04:21:33.054Z,1013.78
2018-11-02T04:22:33.896Z,1013.77
2018-11-02T04:23:33.942Z,1013.74
2018-11-02T04:24:32.956Z,1013.74
2018-11-02T04:25:32.888Z,1013.64
2018-11-02T04:26:33.806Z,1013.64
2018-11-02T04:27:33.398Z,1013.61
2018-11-02T04:28:33.400Z,1013.63
2018-11-02T04:29:32.959Z,1013.60
2018-11-02T04:30:33.429Z,1013.64
2018-11-02T04:31:32.949Z,1013.64
2018-11-02T04:32:32.698Z,1013.66
2018-11-02T04:33:33.432Z,1013.63
2018-11-02T04:34:32.971Z,1013.68
2018-11-02T04:35:33.400Z,1013.68
2018-11-02T04:36:33.406Z,1013.70
2018-11-02T04:37:32.508Z,1013.70
2018-11-02T04:38:32.468Z,1013.69
2018-11-02T04:39:32.958Z,1013.70
2018-11-02T04:40:33.350Z,1013.72
2018-11-02T04:41:32.369Z,1013.72
2018-11-02T04:42:32.377Z,1013.74
2018-11-02T04:43:32.905Z,1013.78
2018-11-02T04:44:32.934Z,1013.76
2018-11-02T04:45:32.476Z,1013.80
2018-11-02T04:46:32.905Z,1013.80
2018-11-02T04:47:32.183Z,1013.85
2018-11-02T04:48:32.919Z,1013.94
2018-11-02T04:49:32.114Z,1014.01
2018-11-02T04:50:32.984Z,1014.02
2018-11-02T04:51:32.900Z,1014.11
2018-11-02T04:52:32.898Z,1014.17
2018-11-02T04:53:31.983Z,1014.26
2018-11-02T04:54:32.953Z,1014.21
2018-11-02T04:55:31.970Z,1014.23
2018-11-02T04:56:31.929Z,1014.20
2018-11-02T04:57:32.402Z,1014.21
2018-11-02T04:58:31.824Z,1014.21
2018-11-02T04:59:31.791Z,1014.21
2018-11-02T05:00:31.809Z,1014.19
2018-11-02T05:01:31.732Z,1014.18
2018-11-02T05:02:31.744Z,1014.19
2018-11-02T05:03:32.399Z,1014.19
2018-11-02T05:04:32.406Z,1014.22
2018-11-02T05:05:31.963Z,1014.21
2018-11-02T05:06:32.402Z,1014.30
2018-11-02T05:07:31.960Z,1014.26
2018-11-02T05:08:32.408Z,1014.29
2018-11-02T05:09:32.403Z,1014.29
2018-11-02T05:10:31.960Z,1014.32
2018-11-02T05:11:31.992Z,1014.33
2018-11-02T05:12:31.903Z,1014.33
2018-11-02T05:13:31.340Z,1014.34
2018-11-02T05:14:31.305Z,1014.35
2018-11-02T05:15:31.463Z,1014.33
2018-11-02T05:16:31.905Z,1014.35
2018-11-02T05:17:31.249Z,1014.42
2018-11-02T05:18:31.904Z,1014.37
2018-11-02T05:19:31.902Z,1014.41
2018-11-02T05:20:31.473Z,1014.38
2018-11-02T05:21:31.902Z,1014.39
2018-11-02T05:22:31.047Z,1014.37
2018-11-02T05:23:31.908Z,1014.39
2018-11-02T05:24:31.901Z,1014.46
2018-11-02T05:25:31.458Z,1014.47
2018-11-02T05:26:31.908Z,1014.49
2018-11-02T05:27:31.415Z,1014.49
2018-11-02T05:28:31.409Z,1014.57
2018-11-02T05:29:30.969Z,1014.64
2018-11-02T05:30:30.787Z,1014.61
2018-11-02T05:31:33.430Z,1014.64
2018-11-02T05:32:30.718Z,1014.65
2018-11-02T05:33:30.734Z,1014.66
2018-11-02T05:34:31.404Z,1014.63
2018-11-02T05:35:31.409Z,1014.70
2018-11-02T05:36:30.959Z,1014.70
2018-11-02T05:37:31.403Z,1014.65
2018-11-02T05:38:31.402Z,1014.67
2018-11-02T05:39:30.588Z,1014.63
2018-11-02T05:40:30.960Z,1014.67
2018-11-02T05:41:31.402Z,1014.69
2018-11-02T05:42:30.907Z,1014.69
2018-11-02T05:43:30.367Z,1014.64
2018-11-02T05:44:30.910Z,1014.70
2018-11-02T05:45:30.459Z,1014.70
2018-11-02T05:46:30.905Z,1014.73
2018-11-02T05:47:30.350Z,1014.76
2018-11-02T05:48:30.906Z,1014.78
2018-11-02T05:49:30.453Z,1014.86
2018-11-02T05:50:30.905Z,1014.85
2018-11-02T05:51:30.150Z,1014.89
2018-11-02T05:52:30.108Z,1014.88
2018-11-02T05:53:30.470Z,1014.90
2018-11-02T05:54:30.013Z,1014.89
2018-11-02T05:55:29.977Z,1014.93
2018-11-02T05:56:29.948Z,1014.93
2018-11-02T05:57:29.954Z,1014.95
2018-11-02T05:58:29.877Z,1015.00
2018-11-02T05:59:29.842Z,1014.98
2018-11-02T06:00:29.811Z,1014.92
2018-11-02T06:01:29.818Z,1014.95
2018-11-02T06:02:29.784Z,1014.94
2018-11-02T06:03:29.708Z,1014.94
2018-11-02T06:04:29.692Z,1014.92
2018-11-02T06:05:29.645Z,1014.89
2018-11-02T06:06:29.658Z,1014.94
2018-11-02T06:07:29.618Z,1014.93
2018-11-02T06:08:29.553Z,1014.91
2018-11-02T06:09:29.562Z,1014.89
2018-11-02T06:10:30.405Z,1014.92
2018-11-02T06:11:29.493Z,1014.91
2018-11-02T06:12:29.465Z,1014.92
2018-11-02T06:13:29.388Z,1014.94
2018-11-02T06:14:29.350Z,1014.91
2018-11-02T06:15:29.321Z,1014.92
2018-11-02T06:16:29.349Z,1014.99
2018-11-02T06:17:29.253Z,1015.00
2018-11-02T06:18:29.222Z,1015.04
2018-11-02T06:19:29.190Z,1015.07
2018-11-02T06:20:29.157Z,1015.08
2018-11-02T06:21:29.167Z,1015.12
2018-11-02T06:22:29.101Z,1015.11
2018-11-02T06:23:29.059Z,1015.11
2018-11-02T06:24:29.166Z,1015.16
2018-11-02T06:25:28.993Z,1015.22
2018-11-02T06:26:28.960Z,1015.23
2018-11-02T06:27:28.931Z,1015.24
2018-11-02T06:28:28.897Z,1015.24
2018-11-02T06:29:28.903Z,1015.21
2018-11-02T06:30:28.845Z,1015.24
2018-11-02T06:31:28.798Z,1015.34
2018-11-02T06:32:28.787Z,1015.40
2018-11-02T06:33:28.734Z,1015.46
2018-11-02T06:34:28.739Z,1015.50
2018-11-02T06:35:28.755Z,1015.49
2018-11-02T06:36:28.740Z,1015.43
2018-11-02T06:37:28.603Z,1015.43
2018-11-02T06:38:28.712Z,1015.42
2018-11-02T06:39:28.536Z,1015.44
2018-11-02T06:40:28.563Z,1015.45
2018-11-02T06:41:28.473Z,1015.45
2018-11-02T06:42:28.446Z,1015.48
2018-11-02T06:43:28.411Z,1015.52
2018-11-02T06:44:28.916Z,1015.53
2018-11-02T06:45:28.389Z,1015.60
2018-11-02T06:46:28.371Z,1015.63
2018-11-02T06:47:28.932Z,1015.69
2018-11-02T06:48:28.262Z,1015.73
2018-11-02T06:49:28.272Z,1015.76
2018-11-02T06:50:28.337Z,1015.77
2018-11-02T06:51:28.149Z,1015.79
2018-11-02T06:52:28.116Z,1015.81
2018-11-02T06:53:28.090Z,1015.84
2018-11-02T06:54:28.470Z,1015.88
2018-11-02T06:55:28.023Z,1015.93
2018-11-02T06:56:28.037Z,1015.93
2018-11-02T06:57:27.978Z,1015.91
2018-11-02T06:58:27.941Z,1015.96
2018-11-02T06:59:28.035Z,1015.93
2018-11-02T07:00:28.012Z,1015.95
2018-11-02T07:01:27.879Z,1015.96
2018-11-02T07:02:27.795Z,1016.00
2018-11-02T07:03:28.417Z,1016.02
2018-11-02T07:04:27.738Z,1016.02
2018-11-02T07:05:27.700Z,1016.02
2018-11-02T07:06:27.705Z,1015.99
2018-11-02T07:07:27.778Z,1015.99
2018-11-02T07:08:27.664Z,1015.96
2018-11-02T07:09:27.570Z,1016.06
2018-11-02T07:10:27.545Z,1016.04
2018-11-02T07:11:27.557Z,1016.09
2018-11-02T07:12:27.523Z,1016.12
2018-11-02T07:13:27.449Z,1016.18
2018-11-02T07:14:27.416Z,1016.19
2018-11-02T07:15:27.385Z,1016.24
2018-11-02T07:16:27.353Z,1016.19
2018-11-02T07:17:27.388Z,1016.28
2018-11-02T07:18:27.289Z,1016.26
2018-11-02T07:19:27.256Z,1016.31
2018-11-02T07:20:27.224Z,1016.33
2018-11-02T07:21:27.195Z,1016.42
2018-11-02T07:22:27.213Z,1016.42
2018-11-02T07:23:27.916Z,1016.42
2018-11-02T07:24:27.113Z,1016.49
2018-11-02T07:25:27.483Z,1016.44
2018-11-02T07:26:27.036Z,1016.48
2018-11-02T07:27:27.913Z,1016.48
2018-11-02T07:28:26.973Z,1016.45
2018-11-02T07:29:26.944Z,1016.51
2018-11-02T07:30:26.914Z,1016.54
2018-11-02T07:31:26.883Z,1016.48
2018-11-02T07:32:26.918Z,1016.52
2018-11-02T07:33:26.814Z,1016.49
2018-11-02T07:34:26.882Z,1016.53
2018-11-02T07:35:26.756Z,1016.46
2018-11-02T07:36:26.772Z,1016.47
2018-11-02T07:37:26.734Z,1016.44
2018-11-02T07:38:27.431Z,1016.49
2018-11-02T07:39:26.676Z,1016.50
2018-11-02T07:40:26.599Z,1016.48
2018-11-02T07:41:26.564Z,1016.45
2018-11-02T07:42:26.553Z,1016.39
2018-11-02T07:43:26.503Z,1016.37
2018-11-02T07:44:26.529Z,1016.32
2018-11-02T07:45:26.444Z,1016.32
2018-11-02T07:46:26.420Z,1016.32
2018-11-02T07:47:26.436Z,1016.40
2018-11-02T07:48:26.388Z,1016.40
2018-11-02T07:49:26.385Z,1016.42
2018-11-02T07:50:26.328Z,1016.47
2018-11-02T07:51:26.252Z,1016.56
2018-11-02T07:52:26.221Z,1016.52
2018-11-02T07:53:26.188Z,1016.58
2018-11-02T07:54:26.180Z,1016.62
2018-11-02T07:55:26.474Z,1016.56
2018-11-02T07:56:26.168Z,1016.57
2018-11-02T07:57:26.066Z,1016.60
2018-11-02T07:58:26.048Z,1016.58
2018-11-02T07:59:26.014Z,1016.60
2018-11-02T08:00:26.031Z,1016.64
2018-11-02T08:01:26.975Z,1016.66
2018-11-02T08:02:25.916Z,1016.68
2018-11-02T08:03:25.889Z,1016.66
2018-11-02T08:04:26.426Z,1016.68
2018-11-02T08:05:25.879Z,1016.70
2018-11-02T08:06:25.798Z,1016.76
2018-11-02T08:07:25.757Z,1016.75
2018-11-02T08:08:25.723Z,1016.76
2018-11-02T08:09:25.695Z,1016.79
2018-11-02T08:10:25.706Z,1016.82
2018-11-02T08:11:25.657Z,1016.85
2018-11-02T08:12:25.651Z,1016.90
2018-11-02T08:13:26.428Z,1016.90
2018-11-02T08:14:25.539Z,1016.89
2018-11-02T08:15:25.619Z,1016.91
2018-11-02T08:16:25.533Z,1016.95
2018-11-02T08:17:25.458Z,1016.94
2018-11-02T08:18:25.419Z,1016.96
2018-11-02T08:19:25.395Z,1017.00
2018-11-02T08:20:25.357Z,1017.01
2018-11-02T08:21:25.393Z,1017.03
2018-11-02T08:22:25.292Z,1017.07
2018-11-02T08:23:25.270Z,1017.03
2018-11-02T08:24:25.246Z,1017.08
2018-11-02T08:25:25.201Z,1017.12
2018-11-02T08:26:25.216Z,1017.12
2018-11-02T08:27:25.195Z,1017.13
2018-11-02T08:28:25.133Z,1017.11
2018-11-02T08:29:25.081Z,1017.17
2018-11-02T08:30:25.053Z,1017.18
2018-11-02T08:31:25.024Z,1017.12
2018-11-02T08:32:25.079Z,1017.14
2018-11-02T08:33:25.024Z,1017.16
2018-11-02T08:34:24.928Z,1017.16
2018-11-02T08:35:24.900Z,1017.22
2018-11-02T08:36:24.878Z,1017.19
2018-11-02T08:37:24.839Z,1017.21
2018-11-02T08:38:24.868Z,1017.21
2018-11-02T08:39:24.775Z,1017.22
2018-11-02T08:40:24.748Z,1017.30
2018-11-02T08:41:24.720Z,1017.30
2018-11-02T08:42:24.729Z,1017.30
2018-11-02T08:43:24.697Z,1017.26
2018-11-02T08:44:24.623Z,1017.30
2018-11-02T08:45:24.592Z,1017.33
2018-11-02T08:46:24.622Z,1017.34
2018-11-02T08:47:24.564Z,1017.36
2018-11-02T08:48:24.549Z,1017.39
2018-11-02T08:49:25.445Z,1017.40
2018-11-02T08:50:24.443Z,1017.35
2018-11-02T08:51:24.411Z,1017.35
2018-11-02T08:52:24.494Z,1017.33
2018-11-02T08:53:24.407Z,1017.31
2018-11-02T08:54:24.502Z,1017.31
2018-11-02T08:55:25.879Z,1017.31
2018-11-02T08:56:24.937Z,1017.36
2018-11-02T08:57:24.941Z,1017.39
2018-11-02T08:58:25.094Z,1017.38
2018-11-02T08:59:24.641Z,1017.43
2018-11-02T09:00:24.928Z,1017.40
2018-11-02T09:01:24.937Z,1017.38
2018-11-02T09:02:24.082Z,1017.47
2018-11-02T09:03:24.066Z,1017.49
2018-11-02T09:04:24.069Z,1017.51
2018-11-02T09:05:23.989Z,1017.49
2018-11-02T09:06:24.946Z,1017.49
2018-11-02T09:07:23.974Z,1017.48
2018-11-02T09:08:23.900Z,1017.50
2018-11-02T09:09:23.914Z,1017.50
2018-11-02T09:10:23.844Z,1017.49
2018-11-02T09:11:23.819Z,1017.57
2018-11-02T09:12:23.777Z,1017.60
2018-11-02T09:13:24.435Z,1017.64
2018-11-02T09:14:23.773Z,1017.62
2018-11-02T09:15:23.693Z,1017.60
2018-11-02T09:16:23.707Z,1017.64
2018-11-02T09:17:23.629Z,1017.65
2018-11-02T09:18:23.630Z,1017.68
2018-11-02T09:19:23.694Z,1017.73
2018-11-02T09:20:24.002Z,1017.70
2018-11-02T09:21:23.510Z,1017.71
2018-11-02T09:22:23.484Z,1017.74
2018-11-02T09:23:23.462Z,1017.78
2018-11-02T09:24:23.799Z,1017.80
2018-11-02T09:25:23.506Z,1017.83
2018-11-02T09:26:23.360Z,1017.90
2018-11-02T09:27:23.402Z,1017.89
2018-11-02T09:28:23.304Z,1017.91
2018-11-02T09:29:23.292Z,1017.90
2018-11-02T09:30:23.297Z,1017.92
2018-11-02T09:31:23.215Z,1017.85
2018-11-02T09:32:23.492Z,1017.83
2018-11-02T09:33:23.154Z,1017.88
2018-11-02T09:34:23.127Z,1017.88
2018-11-02T09:35:23.098Z,1017.92
2018-11-02T09:36:23.081Z,1017.99
2018-11-02T09:37:23.090Z,1018.04
2018-11-02T09:38:23.006Z,1018.09
2018-11-02T09:39:23.017Z,1018.09
2018-11-02T09:40:24.019Z,1018.13
2018-11-02T09:41:23.435Z,1018.07
2018-11-02T09:42:23.055Z,1018.08
2018-11-02T09:43:22.874Z,1018.05
2018-11-02T09:44:22.832Z,1018.02
2018-11-02T09:45:22.839Z,1017.96
2018-11-02T09:46:22.768Z,1017.96
2018-11-02T09:47:22.790Z,1017.98
2018-11-02T09:48:22.709Z,1018.04
2018-11-02T09:49:22.723Z,1018.02
2018-11-02T09:50:22.651Z,1018.07
2018-11-02T09:51:22.697Z,1018.14
2018-11-02T09:52:22.593Z,1018.14
2018-11-02T09:53:22.562Z,1018.14
2018-11-02T09:54:22.590Z,1018.10
2018-11-02T09:55:22.502Z,1018.05
2018-11-02T09:56:22.472Z,1017.98
2018-11-02T09:57:22.446Z,1017.94
2018-11-02T09:58:22.415Z,1017.94
2018-11-02T09:59:22.448Z,1017.96
2018-11-02T10:00:22.357Z,1017.98
2018-11-02T10:01:22.324Z,1017.98
2018-11-02T10:02:22.297Z,1017.98
2018-11-02T10:03:22.266Z,1018.04
2018-11-02T10:04:22.275Z,1018.03
2018-11-02T10:05:22.207Z,1018.08
2018-11-02T10:06:22.225Z,1018.08
2018-11-02T10:07:22.155Z,1018.10
2018-11-02T10:08:22.160Z,1018.16
2018-11-02T10:09:22.131Z,1018.11
2018-11-02T10:10:22.066Z,1018.08
2018-11-02T10:11:22.069Z,1018.04
2018-11-02T10:12:22.004Z,1017.99
2018-11-02T10:13:21.972Z,1017.97
2018-11-02T10:14:21.942Z,1017.97
2018-11-02T10:15:21.923Z,1017.93
2018-11-02T10:16:21.937Z,1017.98
2018-11-02T10:17:21.853Z,1017.96
2018-11-02T10:18:21.822Z,1017.98
2018-11-02T10:19:21.801Z,1017.99
2018-11-02T10:20:22.390Z,1018.03
2018-11-02T10:21:21.784Z,1018.04
2018-11-02T10:22:21.714Z,1018.05
2018-11-02T10:23:21.687Z,1018.10
2018-11-02T10:24:21.646Z,1018.09
2018-11-02T10:25:21.623Z,1018.15
2018-11-02T10:26:22.005Z,1018.17
2018-11-02T10:27:21.562Z,1018.15
2018-11-02T10:28:21.621Z,1018.13
2018-11-02T10:29:21.500Z,1018.15
2018-11-02T10:30:22.449Z,1018.18
2018-11-02T10:31:21.492Z,1018.22
2018-11-02T10:32:21.456Z,1018.26
2018-11-02T10:33:21.403Z,1018.25
2018-11-02T10:34:21.379Z,1018.24
2018-11-02T10:35:21.390Z,1018.22
2018-11-02T10:36:21.357Z,1018.18
2018-11-02T10:37:21.287Z,1018.20
2018-11-02T10:38:21.243Z,1018.18
2018-11-02T10:39:21.223Z,1018.18
2018-11-02T10:40:21.190Z,1018.14
2018-11-02T10:41:21.208Z,1018.13
2018-11-02T10:42:21.137Z,1018.15
2018-11-02T10:43:21.102Z,1018.16
2018-11-02T10:44:21.127Z,1018.22
2018-11-02T10:45:21.120Z,1018.22
2018-11-02T10:46:21.060Z,1018.24
2018-11-02T10:47:21.045Z,1018.27
2018-11-02T10:48:20.964Z,1018.28
2018-11-02T10:49:20.992Z,1018.32
2018-11-02T10:50:20.902Z,1018.36
2018-11-02T10:51:20.928Z,1018.37
2018-11-02T10:52:20.886Z,1018.41
2018-11-02T10:53:20.819Z,1018.42
2018-11-02T10:54:20.856Z,1018.43
2018-11-02T10:55:20.774Z,1018.42
2018-11-02T10:56:20.767Z,1018.44
2018-11-02T10:57:20.759Z,1018.45
2018-11-02T10:58:20.682Z,1018.52
2018-11-02T10:59:20.677Z,1018.50
2018-11-02T11:00:20.665Z,1018.53
2018-11-02T11:01:20.682Z,1018.49
2018-11-02T11:02:20.617Z,1018.47
2018-11-02T11:03:20.562Z,1018.46
2018-11-02T11:04:20.507Z,1018.51
2018-11-02T11:05:20.526Z,1018.48
2018-11-02T11:06:20.458Z,1018.51
2018-11-02T11:07:20.474Z,1018.49
2018-11-02T11:08:20.446Z,1018.45
2018-11-02T11:09:20.951Z,1018.45
2018-11-02T11:10:20.409Z,1018.44
2018-11-02T11:11:20.342Z,1018.50
2018-11-02T11:12:20.333Z,1018.52
2018-11-02T11:13:20.585Z,1018.53
2018-11-02T11:14:20.451Z,1018.48
2018-11-02T11:15:20.250Z,1018.46
2018-11-02T11:16:20.195Z,1018.44
2018-11-02T11:17:20.146Z,1018.43
2018-11-02T11:18:20.323Z,1018.43
2018-11-02T11:19:20.964Z,1018.41
2018-11-02T11:20:20.064Z,1018.47
2018-11-02T11:21:20.056Z,1018.50
2018-11-02T11:22:20.008Z,1018.49
2018-11-02T11:23:20.033Z,1018.51
2018-11-02T11:24:20.000Z,1018.56
2018-11-02T11:25:19.931Z,1018.60
2018-11-02T11:26:19.900Z,1018.65
2018-11-02T11:27:19.876Z,1018.62
2018-11-02T11:28:19.844Z,1018.70
2018-11-02T11:29:19.959Z,1018.73
2018-11-02T11:30:19.823Z,1018.70
2018-11-02T11:31:19.756Z,1018.76
2018-11-02T11:32:19.729Z,1018.76
2018-11-02T11:33:19.746Z,1018.76
2018-11-02T11:34:19.715Z,1018.73
2018-11-02T11:35:19.650Z,1018.71
2018-11-02T11:36:19.615Z,1018.66
2018-11-02T11:37:19.601Z,1018.66
2018-11-02T11:38:19.564Z,1018.66
2018-11-02T11:39:19.574Z,1018.62
2018-11-02T11:40:19.509Z,1018.59
2018-11-02T11:41:19.481Z,1018.54
2018-11-02T11:42:19.450Z,1018.51
2018-11-02T11:43:19.460Z,1018.53
2018-11-02T11:44:19.390Z,1018.49
2018-11-02T11:45:19.420Z,1018.53
2018-11-02T11:46:19.365Z,1018.56
2018-11-02T11:47:19.962Z,1018.49
2018-11-02T11:48:19.289Z,1018.55
2018-11-02T11:49:19.343Z,1018.56
2018-11-02T11:50:19.225Z,1018.64
2018-11-02T11:51:19.247Z,1018.68
2018-11-02T11:52:19.166Z,1018.71
2018-11-02T11:53:19.159Z,1018.72
2018-11-02T11:54:19.152Z,1018.80
2018-11-02T11:55:19.091Z,1018.82
2018-11-02T11:56:19.109Z,1018.82
2018-11-02T11:57:19.034Z,1018.82
2018-11-02T11:58:19.002Z,1018.82
2018-11-02T11:59:18.981Z,1018.83
2018-11-02T12:00:18.981Z,1018.80
2018-11-02T12:01:18.962Z,1018.81
2018-11-02T12:02:18.942Z,1018.78
2018-11-02T12:03:18.861Z,1018.82
2018-11-02T12:04:18.886Z,1018.75
2018-11-02T12:05:18.824Z,1018.80